Terminal Aerodrome Forecast
Issued by NWS Shreveport, LA

Home | Current Version | Previous Version | Text Only | Print | Product List | Glossary On
Versions: 1 2 3 4 5 6 7 8 9 10 11 12 13 14 15 16 17 18 19 20 21 22
031
FTUS44 KSHV 281934 AAA
TAFGGG
TAF AMD
KGGG 281934Z 2820/2918 28006KT P6SM BKN025
      TEMPO 2820/2824 SCT030
     FM290800 16004KT 3SM BR BKN010
     FM291200 17005KT P6SM SCT030
      TEMPO 2912/2915 BKN020=

USA.gov is the U.S. government's official web portal to all federal, state and local government web resources and services.